YMLT Airport Information

Runway Information
Runway 14L Length 2297 ft width 60 ft
Elevation 535 ft Threshold 0 ft Heading 147
Runway 32R Length 2297 ft Width 60 ft
Elevation 545 ft Threshold 0 ft Heading 327
Runway 14R Length 6499 ft width 148 ft
Elevation 560 ft Threshold 0 ft Heading 146
Runway 32L Length 6499 ft Width 148 ft
Elevation 548 ft Threshold 0 ft Heading 326
Runway 18 Length 2264 ft width 60 ft
Elevation 0 ft Threshold 0 ft Heading 196
Runway 36 Length 2264 ft Width 60 ft
Elevation 0 ft Threshold 0 ft Heading 16
Airport Frequencies
Type ATIS Name ATIS Frequency 112.6 MHZ
Type CTAF Name CTAF Frequency 118.7 MHZ
Type FSS Name MELBOURNE Frequency 126.5 MHZ
Type TWR Name TWR Frequency 118.7 MHZ
Airport Navaids
Type VOR-DME Name Launceston Frequency 112600 KHZ
Type NDB Name Launceston Frequency 242 KHZ
Type NDB Name Nile Frequency 230 KHZ
Airport Weather Information & NOTAM
ADDS - METARS form results

(0939 UTC 23 July 2018)
 
METAR text: YMLT 230900Z AUTO 35010KT 9999 // SCT068 BKN080 09/05 Q1005
Conditions at: YMLT (LAUNCESTON AIRPO, AU) observed 0900 UTC 23 July 2018
Temperature: 9.0°C (48°F)
Dewpoint: 5.0°C (41°F) [RH = 76%]
Pressure (altimeter): 29.68 inches Hg (1005.0 mb)
Winds: from the N (350 degrees) at 12 MPH (10 knots; 5.2 m/s)
Visibility: 6 or more miles (10+ km)
Ceiling: 8000 feet AGL
Clouds: scattered clouds at 6800 feet AGL
broken clouds at 8000 feet AGL
Weather: no significant weather observed at this time